CW8593 Gava ES current weather conditions

sailwx.info

Wind from 313 at 6 knots gusting 12

Air temperature 17.2° C
Dewpoint 13.3° C

Last reported at 2014-Oct-22 22:23 UTC.
Time now 2014-Oct-22 23:23 UTC

Location: N 41°18' E 001°60'.
View on Google Maps.

See reports from other nearby stations

  
Tides and Currents Weather Stations Pressure Air Temp Water Temp Dewpoint Dewpoint Depression Visibility Wind Speed Wind Dir Waves Ship Positions
date/time (UTC)wind fromknots sea level pressurealtimeterstation pressurevisibilityair tempwater tempwave heightnotes
2014-Oct-22 22:23 313 6 gusting 12 17.2
2014-Oct-22 22:13 314 2 gusting 8 17.8
2014-Oct-22 22:03 305 6 gusting 10 17.8
2014-Oct-22 21:53 287 5 gusting 8 17.8
2014-Oct-22 21:43 321 6 gusting 13 17.8
2014-Oct-22 21:33 298 7 gusting 11 17.8
2014-Oct-22 21:03 300 5 gusting 10 17.8
2014-Oct-22 20:53 291 6 gusting 10 17.8
2014-Oct-22 20:33 297 5 gusting 10 17.8
2014-Oct-22 19:43 303 3 gusting 5 18.3
2014-Oct-22 19:03 234 17.8
2014-Oct-22 18:53 235 17.8
2014-Oct-22 18:33 234 0 gusting 2 18.3
2014-Oct-22 18:23 235 18.3
2014-Oct-22 18:13 234 18.3
2014-Oct-22 17:53 234 1 gusting 2 18.9
2014-Oct-22 17:43 235 18.9
2014-Oct-22 17:33 234 19.4
2014-Oct-22 17:23 234 19.4
2014-Oct-22 17:03 234 20.6
2014-Oct-22 16:53 234 0 gusting 5 20.6
2014-Oct-22 16:43 190 2 gusting 6 20.6
2014-Oct-22 16:33 187 2 gusting 6 20.6
2014-Oct-22 15:43 197 2 gusting 6 21.1
2014-Oct-22 15:33 164 5 gusting 7 21.1
2014-Oct-22 15:23 134 3 gusting 7 21.1
2014-Oct-22 15:13 141 4 gusting 10 21.1
2014-Oct-22 15:03 130 2 gusting 6 21.7
2014-Oct-22 14:13 163 6 gusting 12 21.1
2014-Oct-22 14:03 138 6 gusting 11 21.1
2014-Oct-22 13:43 165 3 gusting 10 21.1
2014-Oct-22 13:33 189 6 gusting 13 21.1
2014-Oct-22 13:23 198 5 gusting 13 21.7
2014-Oct-22 13:13 233 4 gusting 10 21.7
2014-Oct-22 13:03 196 4 gusting 10 22.2
2014-Oct-22 12:53 199 2 gusting 11 22.2
2014-Oct-22 12:43 180 6 gusting 12 21.7
2014-Oct-22 12:23 165 5 gusting 8 21.7
2014-Oct-22 12:03 150 5 gusting 10 21.7
2014-Oct-22 11:33 188 5 gusting 10 22.2
2014-Oct-22 11:23 206 6 gusting 13 22.2
2014-Oct-22 10:43 222 4 gusting 7 22.8
2014-Oct-22 10:13 250 2 gusting 7 23.3
2014-Oct-22 10:03 334 1 gusting 6 22.8
2014-Oct-22 09:13 319 4 gusting 7 22.8
2014-Oct-22 09:03 290 2 gusting 8 22.2
2014-Oct-22 08:53 300 2 gusting 6 22.2
2014-Oct-22 08:33 005 2 gusting 7 21.7
2014-Oct-22 08:03 357 5 gusting 10 20.0
2014-Oct-22 07:53 018 6 gusting 8 19.4
2014-Oct-22 07:23 333 2 gusting 6 18.3
2014-Oct-22 07:03 321 2 gusting 6 18.3
2014-Oct-22 06:53 342 4 gusting 6 18.3
2014-Oct-22 06:43 313 2 gusting 4 17.2
2014-Oct-22 06:33 313 17.8
2014-Oct-22 06:23 313 0 gusting 5 17.8
2014-Oct-22 06:03 296 0 gusting 2 17.2
2014-Oct-22 05:43 293 16.7
2014-Oct-22 05:23 292 17.2
2014-Oct-22 05:13 292 17.8
2014-Oct-22 05:03 293 17.8
2014-Oct-22 04:43 293 0 gusting 2 18.9
2014-Oct-22 04:23 311 3 gusting 6 20.0
2014-Oct-22 04:13 298 1 gusting 6 20.0
2014-Oct-22 04:03 299 4 gusting 6 20.6
2014-Oct-22 03:53 292 2 gusting 4 20.0
2014-Oct-22 03:23 294 4 gusting 8 20.6
2014-Oct-22 03:13 295 0 gusting 4 17.8
2014-Oct-22 02:33 295 18.3
2014-Oct-22 02:23 295 18.9
2014-Oct-22 02:13 295 19.4
2014-Oct-22 02:03 295 20.0
2014-Oct-22 01:53 295 20.0
2014-Oct-22 01:43 295 0 gusting 4 19.4
2014-Oct-22 01:33 295 0 gusting 2 19.4
2014-Oct-22 01:23 295 0 gusting 5 19.4
2014-Oct-22 00:53 292 1 gusting 5 20.0
2014-Oct-22 00:43 291 0 gusting 4 20.0
2014-Oct-22 00:23 290 20.0
2014-Oct-22 00:13 290 0 gusting 1 20.0
2014-Oct-22 00:03 290 20.6
2014-Oct-21 23:53 290 1 gusting 5 20.6
2014-Oct-21 23:43 289 1 gusting 5 20.0
2014-Oct-21 23:03 296 5 gusting 7 19.4
2014-Oct-21 22:53 303 2 gusting 6 19.4
2014-Oct-21 22:43 305 19.4
2014-Oct-21 22:33 302 2 gusting 5 19.4
2014-Oct-21 22:23 333 1 gusting 4 19.4
2014-Oct-21 22:13 319 0 gusting 4 19.4
2014-Oct-21 21:13 350 4 gusting 5 20.0
2014-Oct-21 21:03 348 0 gusting 2 20.0
2014-Oct-21 20:33 042 20.0
2014-Oct-21 20:23 042 20.0
2014-Oct-21 19:53 071 20.0
2014-Oct-21 19:43 071 20.0
2014-Oct-21 19:23 071 20.0
2014-Oct-21 19:13 071 20.0
2014-Oct-21 19:03 071 20.0
2014-Oct-21 18:43 071 20.6
2014-Oct-21 18:33 071 20.6
2014-Oct-21 18:13 071 20.6
2014-Oct-21 18:03 071 20.6
2014-Oct-21 17:53 071 21.1
2014-Oct-21 17:43 071 21.1
2014-Oct-21 17:33 071 21.7
2014-Oct-21 17:23 071 21.7
2014-Oct-21 17:13 071 22.2
2014-Oct-21 17:03 071 22.8
2014-Oct-21 16:33 071 0 gusting 2 23.3
2014-Oct-21 16:23 066 1 gusting 6 23.3
2014-Oct-21 16:13 091 3 gusting 6 23.9
2014-Oct-21 16:03 094 1 gusting 4 23.9
2014-Oct-21 15:13 107 0 gusting 4 23.9
2014-Oct-21 15:03 106 1 gusting 5 23.9
2014-Oct-21 14:53 097 0 gusting 5 23.9
2014-Oct-21 14:33 100 1 gusting 5 23.9
2014-Oct-21 14:23 080 1 gusting 6 23.9
2014-Oct-21 14:13 100 3 gusting 6 23.9
2014-Oct-21 14:03 102 1 gusting 6 23.9
2014-Oct-21 13:53 094 2 gusting 6 23.9
2014-Oct-21 13:33 074 4 gusting 8 23.9
2014-Oct-21 13:23 083 2 gusting 8 24.4
2014-Oct-21 13:03 099 5 gusting 10 25.0
2014-Oct-21 12:53 070 5 gusting 8 25.6
2014-Oct-21 12:43 102 2 gusting 7 26.1
2014-Oct-21 12:33 102 1 gusting 5 25.6
2014-Oct-21 12:13 094 0 gusting 5 26.1
2014-Oct-21 11:33 130 2 gusting 4 26.7
2014-Oct-21 11:23 163 2 gusting 6 26.7
2014-Oct-21 10:53 090 3 gusting 6 26.7
2014-Oct-21 10:43 138 1 gusting 4 26.7
2014-Oct-21 10:33 138 1 gusting 2 26.7
2014-Oct-21 10:23 144 0 gusting 2 26.1
2014-Oct-21 10:13 144 0 gusting 5 25.6
2014-Oct-21 10:03 143 1 gusting 2 25.6
2014-Oct-21 09:53 141 25.0
2014-Oct-21 09:43 145 2 gusting 4 24.4
2014-Oct-21 09:33 146 2 gusting 5 24.4
2014-Oct-21 09:23 110 1 gusting 2 25.0
2014-Oct-21 09:13 110 23.9
2014-Oct-21 08:43 327 0 gusting 1 23.3
2014-Oct-21 08:33 327 22.2
2014-Oct-21 08:03 326 21.7
2014-Oct-21 07:43 312 21.1
2014-Oct-21 07:13 311 18.3
2014-Oct-21 07:03 311 17.8
2014-Oct-21 06:43 312 17.2
2014-Oct-21 06:13 311 17.2
2014-Oct-21 06:03 312 17.2
2014-Oct-21 05:43 312 17.2
2014-Oct-21 05:33 312 17.8
2014-Oct-21 05:03 312 17.8
2014-Oct-21 04:53 312 17.2
2014-Oct-21 04:33 312 17.8
2014-Oct-21 04:23 311 17.2
2014-Oct-21 04:03 311 17.8
2014-Oct-21 03:53 312 17.8
2014-Oct-21 03:43 312 17.8
2014-Oct-21 03:33 312 17.8
2014-Oct-21 03:03 311 2 gusting 2 17.2
2014-Oct-21 02:43 312 17.8
2014-Oct-21 02:33 312 17.8
2014-Oct-21 02:13 311 2 gusting 2 17.8
2014-Oct-21 01:43 312 1 gusting 2 17.8
2014-Oct-21 01:33 312 17.8
2014-Oct-21 01:23 312 17.8
2014-Oct-21 01:13 312 17.8
2014-Oct-21 01:03 312 18.3
2014-Oct-21 00:43 312 0 gusting 2 18.3
2014-Oct-21 00:23 336 2 gusting 4 18.3
2014-Oct-21 00:13 336 18.9
2014-Oct-21 00:03 336 1 gusting 2 18.9
2014-Oct-20 23:53 336 1 gusting 2 18.3
2014-Oct-20 23:43 336 0 gusting 1 18.3
2014-Oct-20 23:33 336 18.9
2014-Oct-20 23:13 336 0 gusting 4 18.9
2014-Oct-20 23:03 336 19.4